Live aus Altenrhein
LIVE
LSZR 220350Z AUTO VRB03KT 9999 SCT036 BKN043 09/08 Q1018

People´s Info Center:

Öffnungszeiten Mo-Fr, 8-18 Uhr

 

info@peoples.ch

 
Aus Österreich:

T: +43 (0)5572 203 610

 

Aus CH / LI / DE:

T: +41 (0)71 858 51 60

 

Taxiflüge

Reisen mit dem eigenen "Flugtaxi" selbst kalkulieren und reservieren.

 

Kalkulieren Sie mit dem Pricing Tool von Pro Sky ganz einfach private Flugreisen und buchen Sie danach bei Interesse die Flüge. Ganz gleich ob grosse Gruppe oder Einzelperson, es wird Ihnen immer das passende Flugzeug bereitgestellt.

 

Haben Sie Fragen? Unser Ground Services Office hilft Ihnen gerne weiter!